Stena Germanica — SKPZ — position and weather

sailwx.info

Track history (hours):
 
Tides and Currents Weather Stations Pressure Air Temp Water Temp Dewpoint Dewpoint Depression Visibility Wind Speed Wind Dir Waves Ship Positions

Stena Germanica

Last reported at 2018-Jan-12 13:07 UTC. Time now 2018-Jan-18 02:16 UTC.
Position N 55°19' E 017°34'.

Length 176 m; draft 6.2 m.

Type: Passenger vessel. MMSI: 265292000.

Date/timePositionNaut miles runAvg speedWind from/ knotsBaromVisibWave heightAir tempDewpointWater temp
2018-Jan-12 13:07N 55°19' E 017°34'217.4
2018-Jan-12 12:59N 55°18' E 017°37'817.1
2018-Jan-12 12:30N 55°13' E 017°49'917.2
2018-Jan-12 12:00N 55°09' E 018°02'1017.8
2018-Jan-12 11:25N 55°03' E 018°17'717.7
2018-Jan-12 11:00N 54°59' E 018°28'917.7
2018-Jan-12 10:30N 54°53' E 018°39'917.4
2018-Jan-12 10:00N 54°47' E 018°49'917.2
2018-Jan-12 09:30N 54°39' E 018°57'817.0
2018-Jan-12 09:00N 54°32' E 018°49'713.6
2018-Jan-12 08:30N 54°32' E 018°37'4 7.8
2018-Jan-12 08:00N 54°33' E 018°31'0 0.4
2018-Jan-12 07:30N 54°33' E 018°30'0 0.0
2018-Jan-12 07:00N 54°33' E 018°30'0 0.0
2018-Jan-12 06:30N 54°33' E 018°30'2 3.4
2018-Jan-12 06:00N 54°32' E 018°33'612.9
2018-Jan-12 05:31N 54°32' E 018°44'816.4
2018-Jan-12 05:01N 54°38' E 018°55'815.3
2018-Jan-12 04:30N 54°45' E 018°50'816.9
2018-Jan-12 04:00N 54°51' E 018°41'916.9
2018-Jan-12 03:30N 54°58' E 018°31'816.9
2018-Jan-12 03:00N 55°02' E 018°19'917.3
2018-Jan-12 02:28N 55°07' E 018°05'817.2
2018-Jan-12 02:00N 55°12' E 017°54'1017.4
2018-Jan-12 01:26N 55°17' E 017°39'1317.5
2018-Jan-12 00:41N 55°25' E 017°20'817.3
2018-Jan-12 00:14N 55°29' E 017°09'1717.1
2018-Jan-11 23:14N 55°38' E 016°43'417.6
2018-Jan-11 23:01N 55°40' E 016°37'917.6
2018-Jan-11 22:31N 55°44' E 016°23'917.5
2018-Jan-11 22:01N 55°49' E 016°11'816.5
2018-Jan-11 21:31N 55°54' E 015°59'816.2
2018-Jan-11 21:00N 55°59' E 015°47'816.2
2018-Jan-11 20:31N 56°03' E 015°35'612.6
2018-Jan-11 20:00N 56°09' E 015°37'1 1.1
2018-Jan-11 19:28N 56°10' E 015°38'0 0.0
2018-Jan-11 18:58N 56°10' E 015°38'0 0.0
2018-Jan-11 18:30N 56°10' E 015°38'4 8.1
2018-Jan-11 18:00N 56°06' E 015°35'815.5
2018-Jan-11 17:30N 56°00' E 015°44'917.7
2018-Jan-11 17:00N 55°56' E 015°57'917.8
2018-Jan-11 16:30N 55°51' E 016°10'917.7
2018-Jan-11 16:00N 55°46' E 016°24'1017.5
2018-Jan-11 15:28N 55°41' E 016°38'817.3
2018-Jan-11 15:00N 55°36' E 016°49'917.3
2018-Jan-11 14:30N 55°32' E 017°02'917.5
2018-Jan-11 14:00N 55°27' E 017°15'917.6
2018-Jan-11 13:30N 55°22' E 017°28'917.7
2018-Jan-11 12:58N 55°17' E 017°42'917.4
2018-Jan-11 12:28N 55°12' E 017°54'817.7
2018-Jan-11 12:00N 55°07' E 018°07'918.1
2018-Jan-11 11:30N 55°02' E 018°20'918.1
2018-Jan-11 11:00N 54°57' E 018°33'918.2
2018-Jan-11 10:30N 54°51' E 018°43'918.1
2018-Jan-11 10:00N 54°44' E 018°54'816.3
2018-Jan-11 09:30N 54°36' E 018°54'815.8
2018-Jan-11 09:00N 54°32' E 018°42'611.2
2018-Jan-11 08:30N 54°32' E 018°33'2 3.2
2018-Jan-11 08:00N 54°33' E 018°30'0 0.0
2018-Jan-11 07:30N 54°33' E 018°30'0 0.2
2018-Jan-11 07:00N 54°33' E 018°30'3 5.4
2018-Jan-11 06:30N 54°32' E 018°35'714.7
2018-Jan-11 06:01N 54°33' E 018°48'816.4
2018-Jan-11 05:30N 54°40' E 018°55'815.2
2018-Jan-11 05:00N 54°46' E 018°49'816.4
2018-Jan-11 04:30N 54°52' E 018°40'816.0
2018-Jan-11 04:00N 54°59' E 018°31'2416.3
2018-Jan-11 02:30N 55°12' E 017°55'1116.6
2018-Jan-11 01:49N 55°18' E 017°38'4316.5
2018-Jan-10 23:12N 55°41' E 016°33'316.7
2018-Jan-10 23:00N 55°43' E 016°29'816.7
2018-Jan-10 22:30N 55°47' E 016°16'816.7
2018-Jan-10 22:00N 55°52' E 016°04'816.6
2018-Jan-10 21:30N 55°57' E 015°52'816.4
2018-Jan-10 21:00N 56°02' E 015°40'713.1
2018-Jan-10 20:30N 56°08' E 015°35'3 4.9
2018-Jan-10 19:58N 56°10' E 015°38'0 0.0
2018-Jan-10 19:28N 56°10' E 015°38'0 0.0
2018-Jan-10 18:58N 56°10' E 015°38'1 1.5
2018-Jan-10 18:30N 56°09' E 015°37'713.3
2018-Jan-10 18:00N 56°03' E 015°37'917.5
2018-Jan-10 17:30N 55°58' E 015°50'917.5
2018-Jan-10 17:00N 55°53' E 016°04'917.5
2018-Jan-10 16:30N 55°49' E 016°17'917.3
2018-Jan-10 16:00N 55°44' E 016°30'6817.6
2018-Jan-10 12:07N 55°06' E 018°10'217.9
2018-Jan-10 12:00N 55°05' E 018°13'918.2
2018-Jan-10 11:30N 54°60' E 018°26'918.1
2018-Jan-10 11:01N 54°54' E 018°38'917.9
2018-Jan-10 10:31N 54°47' E 018°48'918.0
2018-Jan-10 10:01N 54°40' E 018°57'917.5
2018-Jan-10 09:31N 54°33' E 018°50'713.9
2018-Jan-10 09:00N 54°32' E 018°38'4 8.5
2018-Jan-10 08:31N 54°33' E 018°31'0 0.4
2018-Jan-10 08:00N 54°33' E 018°30'0 0.0
2018-Jan-10 07:30N 54°33' E 018°30'0 0.0
2018-Jan-10 07:00N 54°33' E 018°30'2 3.0
2018-Jan-10 06:30N 54°32' E 018°33'612.1
2018-Jan-10 06:00N 54°32' E 018°43'816.0
2018-Jan-10 05:30N 54°37' E 018°54'815.1
2018-Jan-10 05:00N 54°45' E 018°53'816.8
2018-Jan-10 04:30N 54°51' E 018°43'816.1
2018-Jan-10 04:00N 54°57' E 018°34'815.9
2018-Jan-10 03:30N 55°02' E 018°23'816.3
2018-Jan-10 02:59N 55°06' E 018°10'816.4
2018-Jan-10 02:30N 55°10' E 017°59'916.5
2018-Jan-10 01:56N 55°16' E 017°45'1316.6
2018-Jan-10 01:09N 55°23' E 017°26'616.3
2018-Jan-10 00:49N 55°26' E 017°18'516.1
2018-Jan-10 00:30N 55°29' E 017°10'816.1
2018-Jan-10 00:00N 55°33' E 016°59'916.2
2018-Jan-09 23:27N 55°38' E 016°45'816.5
2018-Jan-09 22:57N 55°42' E 016°33'716.5
2018-Jan-09 22:30N 55°46' E 016°22'816.4
2018-Jan-09 22:00N 55°51' E 016°10'816.5
2018-Jan-09 21:30N 55°55' E 015°58'816.5
2018-Jan-09 21:00N 55°60' E 015°45'815.9
2018-Jan-09 20:30N 56°05' E 015°34'611.3
2018-Jan-09 20:00N 56°10' E 015°38'0 0.2
2018-Jan-09 19:30N 56°10' E 015°38'0 0.0
2018-Jan-09 19:00N 56°10' E 015°38'0 0.0
2018-Jan-09 18:30N 56°10' E 015°38'4 7.9
2018-Jan-09 18:00N 56°06' E 015°35'815.2
2018-Jan-09 17:30N 56°01' E 015°43'917.7
2018-Jan-09 17:00N 55°56' E 015°57'917.7
2018-Jan-09 16:30N 55°51' E 016°10'918.0
2018-Jan-09 16:00N 55°46' E 016°23'917.8
2018-Jan-09 15:30N 55°41' E 016°36'917.5
2018-Jan-09 15:00N 55°36' E 016°49'917.5
2018-Jan-09 14:30N 55°32' E 017°03'917.7
2018-Jan-09 14:00N 55°27' E 017°16'918.0
2018-Jan-09 13:30N 55°22' E 017°29'917.7
2018-Jan-09 13:00N 55°17' E 017°42'917.6
2018-Jan-09 12:30N 55°12' E 017°54'917.6
2018-Jan-09 12:00N 55°07' E 018°07'917.8
2018-Jan-09 11:31N 55°02' E 018°20'917.8
2018-Jan-09 11:00N 54°57' E 018°33'918.2
2018-Jan-09 10:30N 54°51' E 018°45'917.5
2018-Jan-09 10:00N 54°44' E 018°55'815.8
2018-Jan-09 09:30N 54°36' E 018°55'815.4
2018-Jan-09 09:00N 54°32' E 018°44'611.4
2018-Jan-09 08:30N 54°32' E 018°35'3 5.2
2018-Jan-09 08:00N 54°33' E 018°30'0 0.0
2018-Jan-09 07:30N 54°33' E 018°30'0 0.0
2018-Jan-09 07:00N 54°33' E 018°30'0 0.0
2018-Jan-09 06:31N 54°33' E 018°30'2 3.9
2018-Jan-09 06:00N 54°32' E 018°34'612.9
2018-Jan-09 05:31N 54°32' E 018°45'815.6
2018-Jan-09 05:01N 54°38' E 018°54'815.0
2018-Jan-09 04:30N 54°45' E 018°51'917.2
2018-Jan-09 04:00N 54°51' E 018°41'816.6
2018-Jan-09 03:31N 54°57' E 018°31'917.0
2018-Jan-09 03:00N 55°03' E 018°19'917.1
2018-Jan-09 02:30N 55°07' E 018°07'917.2
2018-Jan-09 02:00N 55°12' E 017°54'917.5
2018-Jan-09 01:30N 55°17' E 017°41'917.4
2018-Jan-09 01:00N 55°21' E 017°28'817.2
2018-Jan-09 00:30N 55°26' E 017°16'816.9
2018-Jan-09 00:00N 55°31' E 017°04'917.1
2018-Jan-08 23:30N 55°36' E 016°51'917.4
2018-Jan-08 23:00N 55°40' E 016°38'917.4
2018-Jan-08 22:30N 55°45' E 016°25'817.2
2018-Jan-08 22:00N 55°50' E 016°13'917.2
2018-Jan-08 21:31N 55°55' E 015°60'917.0
2018-Jan-08 21:00N 55°59' E 015°47'816.9
2018-Jan-08 20:30N 56°04' E 015°35'611.9
2018-Jan-08 20:00N 56°10' E 015°37'0 0.7
2018-Jan-08 19:29N 56°10' E 015°38'0 0.0
2018-Jan-08 18:59N 56°10' E 015°38'0 0.0
2018-Jan-08 18:29N 56°10' E 015°38'0 0.0
2018-Jan-08 18:00N 56°10' E 015°38'4 7.8
2018-Jan-08 17:30N 56°06' E 015°35'816.5
2018-Jan-08 17:00N 56°00' E 015°44'918.8
2018-Jan-08 16:30N 55°55' E 015°58'1019.1
2018-Jan-08 16:00N 55°50' E 016°12'918.9
2018-Jan-08 15:30N 55°45' E 016°27'918.9
2018-Jan-08 15:00N 55°40' E 016°41'1018.9
2018-Jan-08 14:30N 55°35' E 016°56'5118.8
2018-Jan-08 11:49N 55°06' E 018°09'718.7
2018-Jan-08 11:27N 55°03' E 018°19'818.7
2018-Jan-08 11:00N 54°58' E 018°31'918.9
2018-Jan-08 10:30N 54°52' E 018°43'918.4
2018-Jan-08 10:00N 54°45' E 018°54'816.9
2018-Jan-08 09:30N 54°36' E 018°55'816.0
2018-Jan-08 09:00N 54°32' E 018°44'611.4
2018-Jan-08 08:30N 54°32' E 018°34'2 4.6
2018-Jan-08 08:00N 54°33' E 018°30'0 0.1
2018-Jan-08 07:28N 54°33' E 018°30'0 0.0
2018-Jan-08 06:58N 54°33' E 018°30'0 0.1
2018-Jan-08 06:31N 54°33' E 018°30'2 4.3
2018-Jan-08 06:00N 54°32' E 018°34'611.8
2018-Jan-08 05:30N 54°32' E 018°44'714.7
2018-Jan-08 05:00N 54°37' E 018°54'815.3
2018-Jan-08 04:30N 54°44' E 018°52'917.7
2018-Jan-08 04:01N 54°51' E 018°42'917.4
2018-Jan-08 03:30N 54°58' E 018°32'917.5
2018-Jan-08 03:00N 55°02' E 018°19'917.5
2018-Jan-08 02:29N 55°07' E 018°05'6416.8
2018-Jan-07 22:41N 55°43' E 016°32'316.7
2018-Jan-07 22:30N 55°44' E 016°27'816.7
2018-Jan-07 22:00N 55°49' E 016°15'816.3
2018-Jan-07 21:30N 55°53' E 016°03'816.3
2018-Jan-07 21:00N 55°58' E 015°50'816.7
2018-Jan-07 20:30N 56°02' E 015°38'713.3
2018-Jan-07 20:01N 56°09' E 015°36'1 2.7
2018-Jan-07 19:28N 56°10' E 015°38'0 0.0
2018-Jan-07 18:58N 56°10' E 015°38'0 0.0
2018-Jan-07 18:31N 56°10' E 015°38'4 8.0
2018-Jan-07 18:00N 56°06' E 015°35'714.6
2018-Jan-07 17:30N 56°01' E 015°43'816.3
2018-Jan-07 17:00N 55°56' E 015°55'816.9
2018-Jan-07 16:30N 55°52' E 016°08'817.0
2018-Jan-07 16:00N 55°47' E 016°21'1117.1
2018-Jan-07 15:21N 55°41' E 016°37'5317.0
2018-Jan-07 12:16N 55°11' E 017°54'1117.2
2018-Jan-07 11:37N 55°05' E 018°10'517.2
2018-Jan-07 11:18N 55°02' E 018°18'517.2
2018-Jan-07 11:00N 54°60' E 018°25'816.9
2018-Jan-07 10:31N 54°55' E 018°37'917.1
2018-Jan-07 10:01N 54°48' E 018°47'816.6
2018-Jan-07 09:30N 54°42' E 018°57'816.1
2018-Jan-07 09:00N 54°35' E 018°53'815.6
2018-Jan-07 08:30N 54°32' E 018°40'510.7
2018-Jan-07 08:00N 54°33' E 018°31'0 0.7
2018-Jan-07 07:29N 54°33' E 018°30'0 0.0
2018-Jan-07 06:59N 54°33' E 018°30'0 0.0
2018-Jan-07 06:30N 54°33' E 018°30'2 3.6
2018-Jan-07 06:00N 54°32' E 018°33'713.6
2018-Jan-07 05:31N 54°32' E 018°45'816.5
2018-Jan-07 05:00N 54°38' E 018°55'815.9
2018-Jan-07 04:30N 54°45' E 018°49'917.3
2018-Jan-07 04:01N 54°52' E 018°40'917.2
2018-Jan-07 03:30N 54°59' E 018°29'917.3
2018-Jan-07 02:59N 55°03' E 018°16'817.1
2018-Jan-07 02:30N 55°08' E 018°04'6116.8
2018-Jan-06 22:51N 55°41' E 016°34'616.5
2018-Jan-06 22:30N 55°44' E 016°26'816.6
2018-Jan-06 22:00N 55°49' E 016°13'816.6
2018-Jan-06 21:30N 55°54' E 016°01'816.5
2018-Jan-06 21:01N 55°58' E 015°48'816.3
2018-Jan-06 20:30N 56°03' E 015°37'713.6
2018-Jan-06 20:01N 56°09' E 015°37'1 1.2
2018-Jan-06 19:30N 56°10' E 015°38'0 0.0
2018-Jan-06 19:00N 56°10' E 015°38'0 0.0
2018-Jan-06 18:30N 56°10' E 015°38'4 8.2
2018-Jan-06 18:00N 56°06' E 015°35'815.6
2018-Jan-06 17:30N 56°00' E 015°44'918.1
2018-Jan-06 17:01N 55°55' E 015°57'918.3
2018-Jan-06 16:30N 55°51' E 016°11'918.2
2018-Jan-06 16:00N 55°46' E 016°25'7218.0
2018-Jan-06 12:00N 55°06' E 018°10'917.7
2018-Jan-06 11:30N 55°01' E 018°23'917.7
2018-Jan-06 11:00N 54°56' E 018°36'917.7
2018-Jan-06 10:30N 54°49' E 018°46'917.7
2018-Jan-06 10:00N 54°43' E 018°56'816.6
2018-Jan-06 09:30N 54°35' E 018°53'816.4
2018-Jan-06 09:00N 54°32' E 018°39'5 9.9
2018-Jan-06 08:30N 54°33' E 018°31'0 0.9
2018-Jan-06 07:59N 54°33' E 018°30'0 0.0
2018-Jan-06 07:29N 54°33' E 018°30'0 0.0
2018-Jan-06 06:59N 54°33' E 018°30'1 1.7
2018-Jan-06 06:31N 54°32' E 018°32'3 6.1
2018-Jan-06 06:01N 54°32' E 018°37'4 7.8
2018-Jan-06 05:30N 54°33' E 018°44'815.5
2018-Jan-06 05:00N 54°38' E 018°54'714.7
2018-Jan-06 04:30N 54°45' E 018°51'917.0
2018-Jan-06 04:00N 54°51' E 018°41'817.0
2018-Jan-06 03:30N 54°58' E 018°32'917.4
2018-Jan-06 03:00N 55°03' E 018°19'917.5
2018-Jan-06 02:28N 55°08' E 018°05'6516.9
2018-Jan-05 22:37N 55°43' E 016°29'216.8
2018-Jan-05 22:30N 55°44' E 016°27'816.7
2018-Jan-05 22:00N 55°49' E 016°14'816.5
2018-Jan-05 21:30N 55°53' E 016°02'816.5
2018-Jan-05 21:00N 55°58' E 015°50'816.2
2018-Jan-05 20:30N 56°02' E 015°38'713.6
2018-Jan-05 20:01N 56°09' E 015°37'1 2.4
2018-Jan-05 19:30N 56°10' E 015°38'0 0.0
2018-Jan-05 19:00N 56°10' E 015°38'0 0.0
2018-Jan-05 18:30N 56°10' E 015°38'4 8.0
2018-Jan-05 18:01N 56°06' E 015°35'714.5
2018-Jan-05 17:31N 56°01' E 015°43'917.0
2018-Jan-05 17:00N 55°56' E 015°55'817.0
2018-Jan-05 16:31N 55°51' E 016°08'917.2
2018-Jan-05 16:01N 55°47' E 016°21'816.9
2018-Jan-05 15:30N 55°42' E 016°34'6516.7
2018-Jan-05 11:38N 55°07' E 018°10'216.3
2018-Jan-05 11:30N 55°06' E 018°13'816.2
2018-Jan-05 11:00N 55°02' E 018°25'816.1
2018-Jan-05 10:30N 54°57' E 018°36'917.2
2018-Jan-05 10:00N 54°50' E 018°45'917.2
2018-Jan-05 09:30N 54°44' E 018°55'815.3
2018-Jan-05 09:00N 54°36' E 018°54'815.9
2018-Jan-05 08:31N 54°32' E 018°43'612.8
2018-Jan-05 08:00N 54°32' E 018°32'1 2.0
2018-Jan-05 07:30N 54°33' E 018°30'0 0.0
2018-Jan-05 07:00N 54°33' E 018°30'0 0.0
2018-Jan-05 06:30N 54°33' E 018°30'2 3.4
2018-Jan-05 06:00N 54°32' E 018°33'713.3
2018-Jan-05 05:31N 54°32' E 018°44'815.8
2018-Jan-05 05:00N 54°38' E 018°55'714.8
2018-Jan-05 04:30N 54°45' E 018°51'816.8
2018-Jan-05 04:00N 54°51' E 018°42'816.9
2018-Jan-05 03:30N 54°58' E 018°32'917.3
2018-Jan-05 03:00N 55°02' E 018°20'917.0
2018-Jan-05 02:29N 55°07' E 018°07'6616.8
2018-Jan-04 22:33N 55°44' E 016°30'117.2
2018-Jan-04 22:30N 55°44' E 016°29'917.2
2018-Jan-04 22:00N 55°49' E 016°16'816.8
2018-Jan-04 21:30N 55°53' E 016°03'816.9
2018-Jan-04 21:00N 55°58' E 015°50'917.1
2018-Jan-04 20:30N 56°02' E 015°37'713.7
2018-Jan-04 20:00N 56°09' E 015°37'1 1.6
2018-Jan-04 19:29N 56°10' E 015°38'0 0.0
2018-Jan-04 18:59N 56°10' E 015°38'0 0.0
2018-Jan-04 18:30N 56°10' E 015°38'4 8.9
2018-Jan-04 18:00N 56°06' E 015°34'815.0
2018-Jan-04 17:30N 56°01' E 015°44'816.4
2018-Jan-04 17:00N 55°56' E 015°56'816.5
2018-Jan-04 16:30N 55°51' E 016°08'816.8
2018-Jan-04 16:00N 55°47' E 016°21'817.0
2018-Jan-04 15:30N 55°42' E 016°33'6416.9
2018-Jan-04 11:44N 55°07' E 018°07'517.0
2018-Jan-04 11:25N 55°04' E 018°15'716.5
2018-Jan-04 11:00N 55°01' E 018°25'816.3
2018-Jan-04 10:30N 54°55' E 018°36'816.7
2018-Jan-04 10:00N 54°49' E 018°45'816.9
2018-Jan-04 09:31N 54°43' E 018°55'815.7
2018-Jan-04 09:00N 54°35' E 018°53'815.3
2018-Jan-04 08:30N 54°32' E 018°41'611.1
2018-Jan-04 08:00N 54°32' E 018°32'1 1.8
2018-Jan-04 07:31N 54°33' E 018°30'0 0.0
2018-Jan-04 07:00N 54°33' E 018°30'0 0.0
2018-Jan-04 06:31N 54°33' E 018°30'1 2.5
2018-Jan-04 06:00N 54°32' E 018°32'713.8
2018-Jan-04 05:31N 54°32' E 018°44'815.6
2018-Jan-04 05:01N 54°37' E 018°54'714.9
2018-Jan-04 04:30N 54°45' E 018°52'917.3
2018-Jan-04 04:00N 54°51' E 018°42'916.9
2018-Jan-04 03:30N 54°58' E 018°32'817.0
2018-Jan-04 03:00N 55°03' E 018°20'917.0
2018-Jan-04 02:30N 55°07' E 018°08'6417.0
2018-Jan-03 22:45N 55°42' E 016°33'417.4
2018-Jan-03 22:31N 55°45' E 016°27'917.3
2018-Jan-03 22:01N 55°49' E 016°14'917.2
2018-Jan-03 21:31N 55°54' E 016°01'816.9
2018-Jan-03 21:00N 55°59' E 015°49'816.5
2018-Jan-03 20:30N 56°03' E 015°36'612.5
2018-Jan-03 20:01N 56°09' E 015°37'1 1.6
2018-Jan-03 19:29N 56°10' E 015°38'0 0.0
2018-Jan-03 18:59N 56°10' E 015°38'0 0.0
2018-Jan-03 18:30N 56°10' E 015°38'4 8.7
2018-Jan-03 18:00N 56°06' E 015°34'815.6
2018-Jan-03 17:30N 56°00' E 015°44'917.2
2018-Jan-03 17:00N 55°56' E 015°57'917.2
2018-Jan-03 16:30N 55°51' E 016°10'917.3
2018-Jan-03 16:00N 55°47' E 016°23'7216.7
2018-Jan-03 11:42N 55°07' E 018°09'617.3
2018-Jan-03 11:23N 55°04' E 018°17'617.3
2018-Jan-03 11:00N 55°01' E 018°27'816.9
2018-Jan-03 10:30N 54°55' E 018°37'917.2
2018-Jan-03 10:00N 54°48' E 018°47'917.2
2018-Jan-03 09:30N 54°42' E 018°57'816.5
2018-Jan-03 09:01N 54°34' E 018°52'815.2
2018-Jan-03 08:31N 54°32' E 018°40'510.6
2018-Jan-03 08:00N 54°33' E 018°31'0 0.7
2018-Jan-03 07:29N 54°33' E 018°30'0 0.0
2018-Jan-03 06:59N 54°33' E 018°30'0 0.0
2018-Jan-03 06:29N 54°33' E 018°30'2 3.4
2018-Jan-03 06:00N 54°32' E 018°33'714.4
2018-Jan-03 05:31N 54°32' E 018°45'816.0
2018-Jan-03 05:00N 54°38' E 018°55'714.0
2018-Jan-03 04:30N 54°45' E 018°52'816.6
2018-Jan-03 04:00N 54°51' E 018°42'816.5
2018-Jan-03 03:30N 54°57' E 018°33'816.5
2018-Jan-03 03:00N 55°02' E 018°21'917.0
2018-Jan-03 02:29N 55°07' E 018°08'917.3
2018-Jan-03 01:58N 55°12' E 017°55'5817.3
2018-Jan-02 22:38N 55°43' E 016°30'217.3
2018-Jan-02 22:30N 55°45' E 016°27'917.2
2018-Jan-02 22:00N 55°49' E 016°14'816.8
2018-Jan-02 21:30N 55°54' E 016°02'816.9
2018-Jan-02 21:00N 55°58' E 015°49'917.2
2018-Jan-02 20:31N 56°03' E 015°36'612.0
2018-Jan-02 20:00N 56°09' E 015°37'1 1.8
2018-Jan-02 19:29N 56°10' E 015°38'0 0.0
2018-Jan-02 18:53N 56°10' E 015°38'0 0.0
2018-Jan-02 18:29N 56°10' E 015°38'5 9.6
2018-Jan-02 18:00N 56°06' E 015°34'714.6
2018-Jan-02 17:30N 56°01' E 015°43'815.9
2018-Jan-02 17:00N 55°56' E 015°55'816.3
2018-Jan-02 16:30N 55°52' E 016°07'816.4
2018-Jan-02 16:00N 55°47' E 016°20'  
Track history (hours):
 
Tides and Currents Weather Stations Pressure Air Temp Water Temp Dewpoint Dewpoint Depression Visibility Wind Speed Wind Dir Waves Ship Positions

Stena Germanica

Last reported at 2018-Jan-12 13:07 UTC. Time now 2018-Jan-18 02:16 UTC.
Position N 55°19' E 017°34'.

Length 176 m; draft 6.2 m.

Type: Passenger vessel. MMSI: 265292000.

Date/timePositionNaut miles runAvg speedWind from/ knotsBaromVisibWave heightAir tempDewpointWater temp
2018-Jan-12 13:07N 55°19' E 017°34'217.4
2018-Jan-12 12:59N 55°18' E 017°37'817.1
2018-Jan-12 12:30N 55°13' E 017°49'917.2
2018-Jan-12 12:00N 55°09' E 018°02'1017.8
2018-Jan-12 11:25N 55°03' E 018°17'717.7
2018-Jan-12 11:00N 54°59' E 018°28'917.7
2018-Jan-12 10:30N 54°53' E 018°39'917.4
2018-Jan-12 10:00N 54°47' E 018°49'917.2
2018-Jan-12 09:30N 54°39' E 018°57'817.0
2018-Jan-12 09:00N 54°32' E 018°49'713.6
2018-Jan-12 08:30N 54°32' E 018°37'4 7.8
2018-Jan-12 08:00N 54°33' E 018°31'0 0.4
2018-Jan-12 07:30N 54°33' E 018°30'0 0.0
2018-Jan-12 07:00N 54°33' E 018°30'0 0.0
2018-Jan-12 06:30N 54°33' E 018°30'2 3.4
2018-Jan-12 06:00N 54°32' E 018°33'612.9
2018-Jan-12 05:31N 54°32' E 018°44'816.4
2018-Jan-12 05:01N 54°38' E 018°55'815.3
2018-Jan-12 04:30N 54°45' E 018°50'816.9
2018-Jan-12 04:00N 54°51' E 018°41'916.9
2018-Jan-12 03:30N 54°58' E 018°31'816.9
2018-Jan-12 03:00N 55°02' E 018°19'917.3
2018-Jan-12 02:28N 55°07' E 018°05'817.2
2018-Jan-12 02:00N 55°12' E 017°54'1017.4
2018-Jan-12 01:26N 55°17' E 017°39'1317.5
2018-Jan-12 00:41N 55°25' E 017°20'817.3
2018-Jan-12 00:14N 55°29' E 017°09'1717.1
2018-Jan-11 23:14N 55°38' E 016°43'417.6
2018-Jan-11 23:01N 55°40' E 016°37'917.6
2018-Jan-11 22:31N 55°44' E 016°23'917.5
2018-Jan-11 22:01N 55°49' E 016°11'816.5
2018-Jan-11 21:31N 55°54' E 015°59'816.2
2018-Jan-11 21:00N 55°59' E 015°47'816.2
2018-Jan-11 20:31N 56°03' E 015°35'612.6
2018-Jan-11 20:00N 56°09' E 015°37'1 1.1
2018-Jan-11 19:28N 56°10' E 015°38'0 0.0
2018-Jan-11 18:58N 56°10' E 015°38'0 0.0
2018-Jan-11 18:30N 56°10' E 015°38'4 8.1
2018-Jan-11 18:00N 56°06' E 015°35'815.5
2018-Jan-11 17:30N 56°00' E 015°44'917.7
2018-Jan-11 17:00N 55°56' E 015°57'917.8
2018-Jan-11 16:30N 55°51' E 016°10'917.7
2018-Jan-11 16:00N 55°46' E 016°24'1017.5
2018-Jan-11 15:28N 55°41' E 016°38'817.3
2018-Jan-11 15:00N 55°36' E 016°49'917.3
2018-Jan-11 14:30N 55°32' E 017°02'917.5
2018-Jan-11 14:00N 55°27' E 017°15'917.6
2018-Jan-11 13:30N 55°22' E 017°28'917.7
2018-Jan-11 12:58N 55°17' E 017°42'917.4
2018-Jan-11 12:28N 55°12' E 017°54'817.7
2018-Jan-11 12:00N 55°07' E 018°07'918.1
2018-Jan-11 11:30N 55°02' E 018°20'918.1
2018-Jan-11 11:00N 54°57' E 018°33'918.2
2018-Jan-11 10:30N 54°51' E 018°43'918.1
2018-Jan-11 10:00N 54°44' E 018°54'816.3
2018-Jan-11 09:30N 54°36' E 018°54'815.8
2018-Jan-11 09:00N 54°32' E 018°42'611.2
2018-Jan-11 08:30N 54°32' E 018°33'2 3.2
2018-Jan-11 08:00N 54°33' E 018°30'0 0.0
2018-Jan-11 07:30N 54°33' E 018°30'0 0.2
2018-Jan-11 07:00N 54°33' E 018°30'3 5.4
2018-Jan-11 06:30N 54°32' E 018°35'714.7
2018-Jan-11 06:01N 54°33' E 018°48'816.4
2018-Jan-11 05:30N 54°40' E 018°55'815.2
2018-Jan-11 05:00N 54°46' E 018°49'816.4
2018-Jan-11 04:30N 54°52' E 018°40'816.0
2018-Jan-11 04:00N 54°59' E 018°31'2416.3
2018-Jan-11 02:30N 55°12' E 017°55'1116.6
2018-Jan-11 01:49N 55°18' E 017°38'4316.5
2018-Jan-10 23:12N 55°41' E 016°33'316.7
2018-Jan-10 23:00N 55°43' E 016°29'816.7
2018-Jan-10 22:30N 55°47' E 016°16'816.7
2018-Jan-10 22:00N 55°52' E 016°04'816.6
2018-Jan-10 21:30N 55°57' E 015°52'816.4
2018-Jan-10 21:00N 56°02' E 015°40'713.1
2018-Jan-10 20:30N 56°08' E 015°35'3 4.9
2018-Jan-10 19:58N 56°10' E 015°38'0 0.0
2018-Jan-10 19:28N 56°10' E 015°38'0 0.0
2018-Jan-10 18:58N 56°10' E 015°38'1 1.5
2018-Jan-10 18:30N 56°09' E 015°37'713.3
2018-Jan-10 18:00N 56°03' E 015°37'917.5
2018-Jan-10 17:30N 55°58' E 015°50'917.5
2018-Jan-10 17:00N 55°53' E 016°04'917.5
2018-Jan-10 16:30N 55°49' E 016°17'917.3
2018-Jan-10 16:00N 55°44' E 016°30'6817.6
2018-Jan-10 12:07N 55°06' E 018°10'217.9
2018-Jan-10 12:00N 55°05' E 018°13'918.2
2018-Jan-10 11:30N 54°60' E 018°26'918.1
2018-Jan-10 11:01N 54°54' E 018°38'917.9
2018-Jan-10 10:31N 54°47' E 018°48'918.0
2018-Jan-10 10:01N 54°40' E 018°57'917.5
2018-Jan-10 09:31N 54°33' E 018°50'713.9
2018-Jan-10 09:00N 54°32' E 018°38'4 8.5
2018-Jan-10 08:31N 54°33' E 018°31'0 0.4
2018-Jan-10 08:00N 54°33' E 018°30'0 0.0
2018-Jan-10 07:30N 54°33' E 018°30'0 0.0
2018-Jan-10 07:00N 54°33' E 018°30'2 3.0
2018-Jan-10 06:30N 54°32' E 018°33'612.1
2018-Jan-10 06:00N 54°32' E 018°43'816.0
2018-Jan-10 05:30N 54°37' E 018°54'815.1
2018-Jan-10 05:00N 54°45' E 018°53'816.8
2018-Jan-10 04:30N 54°51' E 018°43'816.1
2018-Jan-10 04:00N 54°57' E 018°34'815.9
2018-Jan-10 03:30N 55°02' E 018°23'816.3
2018-Jan-10 02:59N 55°06' E 018°10'816.4
2018-Jan-10 02:30N 55°10' E 017°59'916.5
2018-Jan-10 01:56N 55°16' E 017°45'1316.6
2018-Jan-10 01:09N 55°23' E 017°26'616.3
2018-Jan-10 00:49N 55°26' E 017°18'516.1
2018-Jan-10 00:30N 55°29' E 017°10'816.1
2018-Jan-10 00:00N 55°33' E 016°59'916.2
2018-Jan-09 23:27N 55°38' E 016°45'816.5
2018-Jan-09 22:57N 55°42' E 016°33'716.5
2018-Jan-09 22:30N 55°46' E 016°22'816.4
2018-Jan-09 22:00N 55°51' E 016°10'816.5
2018-Jan-09 21:30N 55°55' E 015°58'816.5
2018-Jan-09 21:00N 55°60' E 015°45'815.9
2018-Jan-09 20:30N 56°05' E 015°34'611.3
2018-Jan-09 20:00N 56°10' E 015°38'0 0.2
2018-Jan-09 19:30N 56°10' E 015°38'0 0.0
2018-Jan-09 19:00N 56°10' E 015°38'0 0.0
2018-Jan-09 18:30N 56°10' E 015°38'4 7.9
2018-Jan-09 18:00N 56°06' E 015°35'815.2
2018-Jan-09 17:30N 56°01' E 015°43'917.7
2018-Jan-09 17:00N 55°56' E 015°57'917.7
2018-Jan-09 16:30N 55°51' E 016°10'918.0
2018-Jan-09 16:00N 55°46' E 016°23'917.8
2018-Jan-09 15:30N 55°41' E 016°36'917.5
2018-Jan-09 15:00N 55°36' E 016°49'917.5
2018-Jan-09 14:30N 55°32' E 017°03'917.7
2018-Jan-09 14:00N 55°27' E 017°16'918.0
2018-Jan-09 13:30N 55°22' E 017°29'917.7
2018-Jan-09 13:00N 55°17' E 017°42'917.6
2018-Jan-09 12:30N 55°12' E 017°54'917.6
2018-Jan-09 12:00N 55°07' E 018°07'917.8
2018-Jan-09 11:31N 55°02' E 018°20'917.8
2018-Jan-09 11:00N 54°57' E 018°33'918.2
2018-Jan-09 10:30N 54°51' E 018°45'917.5
2018-Jan-09 10:00N 54°44' E 018°55'815.8
2018-Jan-09 09:30N 54°36' E 018°55'815.4
2018-Jan-09 09:00N 54°32' E 018°44'611.4
2018-Jan-09 08:30N 54°32' E 018°35'3 5.2
2018-Jan-09 08:00N 54°33' E 018°30'0 0.0
2018-Jan-09 07:30N 54°33' E 018°30'0 0.0
2018-Jan-09 07:00N 54°33' E 018°30'0 0.0
2018-Jan-09 06:31N 54°33' E 018°30'2 3.9
2018-Jan-09 06:00N 54°32' E 018°34'612.9
2018-Jan-09 05:31N 54°32' E 018°45'815.6
2018-Jan-09 05:01N 54°38' E 018°54'815.0
2018-Jan-09 04:30N 54°45' E 018°51'917.2
2018-Jan-09 04:00N 54°51' E 018°41'816.6
2018-Jan-09 03:31N 54°57' E 018°31'917.0
2018-Jan-09 03:00N 55°03' E 018°19'917.1
2018-Jan-09 02:30N 55°07' E 018°07'917.2
2018-Jan-09 02:00N 55°12' E 017°54'917.5
2018-Jan-09 01:30N 55°17' E 017°41'917.4
2018-Jan-09 01:00N 55°21' E 017°28'817.2
2018-Jan-09 00:30N 55°26' E 017°16'816.9
2018-Jan-09 00:00N 55°31' E 017°04'917.1
2018-Jan-08 23:30N 55°36' E 016°51'917.4
2018-Jan-08 23:00N 55°40' E 016°38'917.4
2018-Jan-08 22:30N 55°45' E 016°25'817.2
2018-Jan-08 22:00N 55°50' E 016°13'917.2
2018-Jan-08 21:31N 55°55' E 015°60'917.0
2018-Jan-08 21:00N 55°59' E 015°47'816.9
2018-Jan-08 20:30N 56°04' E 015°35'611.9
2018-Jan-08 20:00N 56°10' E 015°37'0 0.7
2018-Jan-08 19:29N 56°10' E 015°38'0 0.0
2018-Jan-08 18:59N 56°10' E 015°38'0 0.0
2018-Jan-08 18:29N 56°10' E 015°38'0 0.0
2018-Jan-08 18:00N 56°10' E 015°38'4 7.8
2018-Jan-08 17:30N 56°06' E 015°35'816.5
2018-Jan-08 17:00N 56°00' E 015°44'918.8
2018-Jan-08 16:30N 55°55' E 015°58'1019.1
2018-Jan-08 16:00N 55°50' E 016°12'918.9
2018-Jan-08 15:30N 55°45' E 016°27'918.9
2018-Jan-08 15:00N 55°40' E 016°41'1018.9
2018-Jan-08 14:30N 55°35' E 016°56'5118.8
2018-Jan-08 11:49N 55°06' E 018°09'718.7
2018-Jan-08 11:27N 55°03' E 018°19'818.7
2018-Jan-08 11:00N 54°58' E 018°31'918.9
2018-Jan-08 10:30N 54°52' E 018°43'918.4
2018-Jan-08 10:00N 54°45' E 018°54'816.9
2018-Jan-08 09:30N 54°36' E 018°55'816.0
2018-Jan-08 09:00N 54°32' E 018°44'611.4
2018-Jan-08 08:30N 54°32' E 018°34'2 4.6
2018-Jan-08 08:00N 54°33' E 018°30'0 0.1
2018-Jan-08 07:28N 54°33' E 018°30'0 0.0
2018-Jan-08 06:58N 54°33' E 018°30'0 0.1
2018-Jan-08 06:31N 54°33' E 018°30'2 4.3
2018-Jan-08 06:00N 54°32' E 018°34'611.8
2018-Jan-08 05:30N 54°32' E 018°44'714.7
2018-Jan-08 05:00N 54°37' E 018°54'815.3
2018-Jan-08 04:30N 54°44' E 018°52'917.7
2018-Jan-08 04:01N 54°51' E 018°42'917.4
2018-Jan-08 03:30N 54°58' E 018°32'917.5
2018-Jan-08 03:00N 55°02' E 018°19'917.5
2018-Jan-08 02:29N 55°07' E 018°05'6416.8
2018-Jan-07 22:41N 55°43' E 016°32'316.7
2018-Jan-07 22:30N 55°44' E 016°27'816.7
2018-Jan-07 22:00N 55°49' E 016°15'816.3
2018-Jan-07 21:30N 55°53' E 016°03'816.3
2018-Jan-07 21:00N 55°58' E 015°50'816.7
2018-Jan-07 20:30N 56°02' E 015°38'713.3
2018-Jan-07 20:01N 56°09' E 015°36'1 2.7
2018-Jan-07 19:28N 56°10' E 015°38'0 0.0
2018-Jan-07 18:58N 56°10' E 015°38'0 0.0
2018-Jan-07 18:31N 56°10' E 015°38'4 8.0
2018-Jan-07 18:00N 56°06' E 015°35'714.6
2018-Jan-07 17:30N 56°01' E 015°43'816.3
2018-Jan-07 17:00N 55°56' E 015°55'816.9
2018-Jan-07 16:30N 55°52' E 016°08'817.0
2018-Jan-07 16:00N 55°47' E 016°21'1117.1
2018-Jan-07 15:21N 55°41' E 016°37'5317.0
2018-Jan-07 12:16N 55°11' E 017°54'1117.2
2018-Jan-07 11:37N 55°05' E 018°10'517.2
2018-Jan-07 11:18N 55°02' E 018°18'517.2
2018-Jan-07 11:00N 54°60' E 018°25'816.9
2018-Jan-07 10:31N 54°55' E 018°37'917.1
2018-Jan-07 10:01N 54°48' E 018°47'816.6
2018-Jan-07 09:30N 54°42' E 018°57'816.1
2018-Jan-07 09:00N 54°35' E 018°53'815.6
2018-Jan-07 08:30N 54°32' E 018°40'510.7
2018-Jan-07 08:00N 54°33' E 018°31'0 0.7
2018-Jan-07 07:29N 54°33' E 018°30'0 0.0
2018-Jan-07 06:59N 54°33' E 018°30'0 0.0
2018-Jan-07 06:30N 54°33' E 018°30'2 3.6
2018-Jan-07 06:00N 54°32' E 018°33'713.6
2018-Jan-07 05:31N 54°32' E 018°45'816.5
2018-Jan-07 05:00N 54°38' E 018°55'815.9
2018-Jan-07 04:30N 54°45' E 018°49'917.3
2018-Jan-07 04:01N 54°52' E 018°40'917.2
2018-Jan-07 03:30N 54°59' E 018°29'917.3
2018-Jan-07 02:59N 55°03' E 018°16'817.1
2018-Jan-07 02:30N 55°08' E 018°04'6116.8
2018-Jan-06 22:51N 55°41' E 016°34'616.5
2018-Jan-06 22:30N 55°44' E 016°26'816.6
2018-Jan-06 22:00N 55°49' E 016°13'816.6
2018-Jan-06 21:30N 55°54' E 016°01'816.5
2018-Jan-06 21:01N 55°58' E 015°48'816.3
2018-Jan-06 20:30N 56°03' E 015°37'713.6
2018-Jan-06 20:01N 56°09' E 015°37'1 1.2
2018-Jan-06 19:30N 56°10' E 015°38'0 0.0
2018-Jan-06 19:00N 56°10' E 015°38'0 0.0
2018-Jan-06 18:30N 56°10' E 015°38'4 8.2
2018-Jan-06 18:00N 56°06' E 015°35'815.6
2018-Jan-06 17:30N 56°00' E 015°44'918.1
2018-Jan-06 17:01N 55°55' E 015°57'918.3
2018-Jan-06 16:30N 55°51' E 016°11'918.2
2018-Jan-06 16:00N 55°46' E 016°25'7218.0
2018-Jan-06 12:00N 55°06' E 018°10'917.7
2018-Jan-06 11:30N 55°01' E 018°23'917.7
2018-Jan-06 11:00N 54°56' E 018°36'917.7
2018-Jan-06 10:30N 54°49' E 018°46'917.7
2018-Jan-06 10:00N 54°43' E 018°56'816.6
2018-Jan-06 09:30N 54°35' E 018°53'816.4
2018-Jan-06 09:00N 54°32' E 018°39'5 9.9
2018-Jan-06 08:30N 54°33' E 018°31'0 0.9
2018-Jan-06 07:59N 54°33' E 018°30'0 0.0
2018-Jan-06 07:29N 54°33' E 018°30'0 0.0
2018-Jan-06 06:59N 54°33' E 018°30'1 1.7
2018-Jan-06 06:31N 54°32' E 018°32'3 6.1
2018-Jan-06 06:01N 54°32' E 018°37'4 7.8
2018-Jan-06 05:30N 54°33' E 018°44'815.5
2018-Jan-06 05:00N 54°38' E 018°54'714.7
2018-Jan-06 04:30N 54°45' E 018°51'917.0
2018-Jan-06 04:00N 54°51' E 018°41'817.0
2018-Jan-06 03:30N 54°58' E 018°32'917.4
2018-Jan-06 03:00N 55°03' E 018°19'917.5
2018-Jan-06 02:28N 55°08' E 018°05'6516.9
2018-Jan-05 22:37N 55°43' E 016°29'216.8
2018-Jan-05 22:30N 55°44' E 016°27'816.7
2018-Jan-05 22:00N 55°49' E 016°14'816.5
2018-Jan-05 21:30N 55°53' E 016°02'816.5
2018-Jan-05 21:00N 55°58' E 015°50'816.2
2018-Jan-05 20:30N 56°02' E 015°38'713.6
2018-Jan-05 20:01N 56°09' E 015°37'1 2.4
2018-Jan-05 19:30N 56°10' E 015°38'0 0.0
2018-Jan-05 19:00N 56°10' E 015°38'0 0.0
2018-Jan-05 18:30N 56°10' E 015°38'4 8.0
2018-Jan-05 18:01N 56°06' E 015°35'714.5
2018-Jan-05 17:31N 56°01' E 015°43'917.0
2018-Jan-05 17:00N 55°56' E 015°55'817.0
2018-Jan-05 16:31N 55°51' E 016°08'917.2
2018-Jan-05 16:01N 55°47' E 016°21'816.9
2018-Jan-05 15:30N 55°42' E 016°34'6516.7
2018-Jan-05 11:38N 55°07' E 018°10'216.3
2018-Jan-05 11:30N 55°06' E 018°13'816.2
2018-Jan-05 11:00N 55°02' E 018°25'816.1
2018-Jan-05 10:30N 54°57' E 018°36'917.2
2018-Jan-05 10:00N 54°50' E 018°45'917.2
2018-Jan-05 09:30N 54°44' E 018°55'815.3
2018-Jan-05 09:00N 54°36' E 018°54'815.9
2018-Jan-05 08:31N 54°32' E 018°43'612.8
2018-Jan-05 08:00N 54°32' E 018°32'1 2.0
2018-Jan-05 07:30N 54°33' E 018°30'0 0.0
2018-Jan-05 07:00N 54°33' E 018°30'0 0.0
2018-Jan-05 06:30N 54°33' E 018°30'2 3.4
2018-Jan-05 06:00N 54°32' E 018°33'713.3
2018-Jan-05 05:31N 54°32' E 018°44'815.8
2018-Jan-05 05:00N 54°38' E 018°55'714.8
2018-Jan-05 04:30N 54°45' E 018°51'816.8
2018-Jan-05 04:00N 54°51' E 018°42'816.9
2018-Jan-05 03:30N 54°58' E 018°32'917.3
2018-Jan-05 03:00N 55°02' E 018°20'917.0
2018-Jan-05 02:29N 55°07' E 018°07'6616.8
2018-Jan-04 22:33N 55°44' E 016°30'117.2
2018-Jan-04 22:30N 55°44' E 016°29'917.2
2018-Jan-04 22:00N 55°49' E 016°16'816.8
2018-Jan-04 21:30N 55°53' E 016°03'816.9
2018-Jan-04 21:00N 55°58' E 015°50'917.1
2018-Jan-04 20:30N 56°02' E 015°37'713.7
2018-Jan-04 20:00N 56°09' E 015°37'1 1.6
2018-Jan-04 19:29N 56°10' E 015°38'0 0.0
2018-Jan-04 18:59N 56°10' E 015°38'0 0.0
2018-Jan-04 18:30N 56°10' E 015°38'4 8.9
2018-Jan-04 18:00N 56°06' E 015°34'815.0
2018-Jan-04 17:30N 56°01' E 015°44'816.4
2018-Jan-04 17:00N 55°56' E 015°56'816.5
2018-Jan-04 16:30N 55°51' E 016°08'816.8
2018-Jan-04 16:00N 55°47' E 016°21'817.0
2018-Jan-04 15:30N 55°42' E 016°33'6416.9
2018-Jan-04 11:44N 55°07' E 018°07'517.0
2018-Jan-04 11:25N 55°04' E 018°15'716.5
2018-Jan-04 11:00N 55°01' E 018°25'816.3
2018-Jan-04 10:30N 54°55' E 018°36'816.7
2018-Jan-04 10:00N 54°49' E 018°45'816.9
2018-Jan-04 09:31N 54°43' E 018°55'815.7
2018-Jan-04 09:00N 54°35' E 018°53'815.3
2018-Jan-04 08:30N 54°32' E 018°41'611.1
2018-Jan-04 08:00N 54°32' E 018°32'1 1.8
2018-Jan-04 07:31N 54°33' E 018°30'0 0.0
2018-Jan-04 07:00N 54°33' E 018°30'0 0.0
2018-Jan-04 06:31N 54°33' E 018°30'1 2.5
2018-Jan-04 06:00N 54°32' E 018°32'713.8
2018-Jan-04 05:31N 54°32' E 018°44'815.6
2018-Jan-04 05:01N 54°37' E 018°54'714.9
2018-Jan-04 04:30N 54°45' E 018°52'917.3
2018-Jan-04 04:00N 54°51' E 018°42'916.9
2018-Jan-04 03:30N 54°58' E 018°32'817.0
2018-Jan-04 03:00N 55°03' E 018°20'917.0
2018-Jan-04 02:30N 55°07' E 018°08'6417.0
2018-Jan-03 22:45N 55°42' E 016°33'417.4
2018-Jan-03 22:31N 55°45' E 016°27'917.3
2018-Jan-03 22:01N 55°49' E 016°14'917.2
2018-Jan-03 21:31N 55°54' E 016°01'816.9
2018-Jan-03 21:00N 55°59' E 015°49'816.5
2018-Jan-03 20:30N 56°03' E 015°36'612.5
2018-Jan-03 20:01N 56°09' E 015°37'1 1.6
2018-Jan-03 19:29N 56°10' E 015°38'0 0.0
2018-Jan-03 18:59N 56°10' E 015°38'0 0.0
2018-Jan-03 18:30N 56°10' E 015°38'4 8.7
2018-Jan-03 18:00N 56°06' E 015°34'815.6
2018-Jan-03 17:30N 56°00' E 015°44'917.2
2018-Jan-03 17:00N 55°56' E 015°57'917.2
2018-Jan-03 16:30N 55°51' E 016°10'917.3
2018-Jan-03 16:00N 55°47' E 016°23'7216.7
2018-Jan-03 11:42N 55°07' E 018°09'617.3
2018-Jan-03 11:23N 55°04' E 018°17'617.3
2018-Jan-03 11:00N 55°01' E 018°27'816.9
2018-Jan-03 10:30N 54°55' E 018°37'917.2
2018-Jan-03 10:00N 54°48' E 018°47'917.2
2018-Jan-03 09:30N 54°42' E 018°57'816.5
2018-Jan-03 09:01N 54°34' E 018°52'815.2
2018-Jan-03 08:31N 54°32' E 018°40'510.6
2018-Jan-03 08:00N 54°33' E 018°31'0 0.7
2018-Jan-03 07:29N 54°33' E 018°30'0 0.0
2018-Jan-03 06:59N 54°33' E 018°30'0 0.0
2018-Jan-03 06:29N 54°33' E 018°30'2 3.4
2018-Jan-03 06:00N 54°32' E 018°33'714.4
2018-Jan-03 05:31N 54°32' E 018°45'816.0
2018-Jan-03 05:00N 54°38' E 018°55'714.0
2018-Jan-03 04:30N 54°45' E 018°52'816.6
2018-Jan-03 04:00N 54°51' E 018°42'816.5
2018-Jan-03 03:30N 54°57' E 018°33'816.5
2018-Jan-03 03:00N 55°02' E 018°21'917.0
2018-Jan-03 02:29N 55°07' E 018°08'917.3
2018-Jan-03 01:58N 55°12' E 017°55'5817.3
2018-Jan-02 22:38N 55°43' E 016°30'217.3
2018-Jan-02 22:30N 55°45' E 016°27'917.2
2018-Jan-02 22:00N 55°49' E 016°14'816.8
2018-Jan-02 21:30N 55°54' E 016°02'816.9
2018-Jan-02 21:00N 55°58' E 015°49'917.2
2018-Jan-02 20:31N 56°03' E 015°36'612.0
2018-Jan-02 20:00N 56°09' E 015°37'1 1.8
2018-Jan-02 19:29N 56°10' E 015°38'0 0.0
2018-Jan-02 18:53N 56°10' E 015°38'0 0.0
2018-Jan-02 18:29N 56°10' E 015°38'5 9.6
2018-Jan-02 18:00N 56°06' E 015°34'714.6
2018-Jan-02 17:30N 56°01' E 015°43'815.9
2018-Jan-02 17:00N 55°56' E 015°55'816.3
2018-Jan-02 16:30N 55°52' E 016°07'816.4
2018-Jan-02 16:00N 55°47' E 016°20'  

Dump ship's entire track history